Time;durP1;ratioP1;P1;durP2;ratioP2;P2;SDS_P1;SDS_P2;PMS_P1;PMS_P2;Temp;Humidity;BMP_temperature;BMP_pressure;BME280_temperature;BME280_humidity;BME280_pressure;Samples;Min_cycle;Max_cycle;Signal;HPM_P1;HPM_P2
2021/12/18 00:01:31;;;;;;;25.30;15.40;;;;;;;;;;5093877;28;20176;-76
2021/12/18 00:03:57;;;;;;;26.87;16.50;;;;;;;;;;5092717;28;20766;-76
2021/12/18 00:06:27;;;;;;;18.33;12.83;;;;;;;;;;5091514;28;20667;-76
2021/12/18 00:08:53;;;;;;;18.73;11.67;;;;;;;;;;5090807;28;20181;-76
2021/12/18 00:11:19;;;;;;;15.80;11.33;;;;;;;;;;5073613;28;20184;-76
2021/12/18 00:13:46;;;;;;;16.47;10.50;;;;;;;;;;5057644;28;20205;-76
2021/12/18 00:16:12;;;;;;;14.63;10.60;;;;;;;;;;5084447;28;20204;-76
2021/12/18 00:18:38;;;;;;;15.73;10.37;;;;;;;;;;5092907;28;20176;-76
2021/12/18 00:21:07;;;;;;;15.77;10.30;;;;;;;;;;5091480;28;20183;-76
2021/12/18 00:23:33;;;;;;;12.83;9.47;;;;;;;;;;5092911;28;20173;-74
2021/12/18 00:25:59;;;;;;;13.90;9.80;;;;;;;;;;5074765;28;20215;-76
2021/12/18 00:28:26;;;;;;;13.67;9.90;;;;;;;;;;5090949;28;20268;-76
2021/12/18 00:30:52;;;;;;;12.67;9.30;;;;;;;;;;5071860;28;20254;-75
2021/12/18 00:33:18;;;;;;;15.37;10.40;;;;;;;;;;5088944;28;20176;-75
2021/12/18 00:35:44;;;;;;;13.37;10.07;;;;;;;;;;5092637;28;20283;-76
2021/12/18 00:38:11;;;;;;;14.00;10.20;;;;;;;;;;5092889;28;20699;-76
2021/12/18 00:40:46;;;;;;;14.37;10.00;;;;;;;;;;5092959;28;20253;-76
2021/12/18 00:43:24;;;;;;;14.17;10.07;;;;;;;;;;5092670;28;20232;-75
2021/12/18 00:45:50;;;;;;;16.20;10.10;;;;;;;;;;5090608;28;20710;-76
2021/12/18 00:48:17;;;;;;;14.07;9.67;;;;;;;;;;5091456;28;20654;-76
2021/12/18 00:50:43;;;;;;;13.23;10.20;;;;;;;;;;5092244;28;20181;-76
2021/12/18 00:53:10;;;;;;;15.00;10.30;;;;;;;;;;5074873;28;20180;-76
2021/12/18 00:55:37;;;;;;;14.97;10.90;;;;;;;;;;5090438;28;20790;-76
2021/12/18 00:58:04;;;;;;;15.33;10.43;;;;;;;;;;5092652;28;20180;-76
2021/12/18 01:00:30;;;;;;;14.77;10.63;;;;;;;;;;5092529;28;20180;-76
2021/12/18 01:02:59;;;;;;;15.90;10.27;;;;;;;;;;5092417;28;20557;-75
2021/12/18 01:05:25;;;;;;;15.00;10.60;;;;;;;;;;5073739;28;20571;-76
2021/12/18 01:07:55;;;;;;;15.13;10.57;;;;;;;;;;5091690;28;20180;-76
2021/12/18 01:13:09;;;;;;;14.67;10.27;;;;;;;;;;5092154;28;20184;-76
2021/12/18 01:15:41;;;;;;;14.83;10.27;;;;;;;;;;5073721;28;20291;-76
2021/12/18 01:23:37;;;;;;;17.30;11.37;;;;;;;;;;5091073;28;20204;-76
2021/12/18 01:26:04;;;;;;;16.57;11.20;;;;;;;;;;5091417;28;20272;-76
2021/12/18 01:28:31;;;;;;;15.57;10.87;;;;;;;;;;5090583;28;20656;-75
2021/12/18 01:30:57;;;;;;;15.17;10.70;;;;;;;;;;5091542;28;20267;-75
2021/12/18 01:33:23;;;;;;;13.77;9.87;;;;;;;;;;5090533;28;20554;-76
2021/12/18 01:35:52;;;;;;;15.33;10.93;;;;;;;;;;5090124;28;20215;-76
2021/12/18 01:38:20;;;;;;;13.83;10.30;;;;;;;;;;5090235;28;20613;-75
2021/12/18 01:40:46;;;;;;;14.73;10.60;;;;;;;;;;5090111;28;20267;-75
2021/12/18 01:46:15;;;;;;;14.87;10.73;;;;;;;;;;5081241;28;20216;-75
2021/12/18 01:53:38;;;;;;;16.33;11.80;;;;;;;;;;5090548;28;20212;-76
2021/12/18 01:56:05;;;;;;;15.00;10.87;;;;;;;;;;5073322;28;20219;-75
2021/12/18 01:58:32;;;;;;;18.03;11.50;;;;;;;;;;5091512;28;20169;-76
2021/12/18 02:00:59;;;;;;;19.67;11.67;;;;;;;;;;5095714;28;20176;-75
2021/12/18 02:03:25;;;;;;;16.10;10.90;;;;;;;;;;5103216;28;20274;-75
2021/12/18 02:05:52;;;;;;;13.97;10.40;;;;;;;;;;5100889;28;20539;-76
2021/12/18 02:08:20;;;;;;;16.53;10.83;;;;;;;;;;5091482;28;20267;-74
2021/12/18 02:10:51;;;;;;;15.00;10.60;;;;;;;;;;5089809;28;20191;-76
2021/12/18 02:21:20;;;;;;;17.50;10.90;;;;;;;;;;5090856;28;20487;-75
2021/12/18 02:23:47;;;;;;;19.27;12.47;;;;;;;;;;5089884;28;20206;-76
2021/12/18 02:26:13;;;;;;;16.47;11.40;;;;;;;;;;5090487;28;20474;-76
2021/12/18 02:28:41;;;;;;;16.90;11.70;;;;;;;;;;5089418;28;20239;-75
2021/12/18 02:31:08;;;;;;;15.37;10.70;;;;;;;;;;5089291;28;20184;-75
2021/12/18 02:33:34;;;;;;;16.13;12.07;;;;;;;;;;5089065;28;20188;-76
2021/12/18 02:36:03;;;;;;;18.70;12.77;;;;;;;;;;5089161;28;20208;-75
2021/12/18 02:38:45;;;;;;;16.77;11.20;;;;;;;;;;5090674;28;20180;-76
2021/12/18 02:41:24;;;;;;;15.17;11.37;;;;;;;;;;5068869;28;20181;-76
2021/12/18 02:43:50;;;;;;;19.33;12.30;;;;;;;;;;5089169;28;20631;-76
2021/12/18 02:46:20;;;;;;;20.77;12.23;;;;;;;;;;5089753;28;20172;-76
2021/12/18 02:48:51;;;;;;;17.57;12.47;;;;;;;;;;5090662;28;20180;-75
2021/12/18 02:51:18;;;;;;;15.57;10.90;;;;;;;;;;5090784;28;20204;-76
2021/12/18 02:53:49;;;;;;;17.27;12.17;;;;;;;;;;5089079;28;20256;-76
2021/12/18 02:56:16;;;;;;;16.77;13.00;;;;;;;;;;5090136;28;20236;-74
2021/12/18 02:58:43;;;;;;;16.00;12.33;;;;;;;;;;5089098;28;20179;-76
2021/12/18 03:01:12;;;;;;;18.00;12.43;;;;;;;;;;5089799;28;20183;-76
2021/12/18 03:03:41;;;;;;;18.47;12.60;;;;;;;;;;5089267;28;20200;-76
2021/12/18 03:08:52;;;;;;;16.90;12.13;;;;;;;;;;5089025;28;20187;-76
2021/12/18 03:23:09;;;;;;;16.30;11.23;;;;;;;;;;5090332;28;20201;-75
2021/12/18 03:25:08;;;;;;;15.43;11.40;;;;;;;;;;5068341;28;20730;-75
2021/12/18 03:27:35;;;;;;;16.87;12.43;;;;;;;;;;5086544;28;20226;-76
2021/12/18 03:30:01;;;;;;;17.27;11.83;;;;;;;;;;5092065;28;20297;-74
2021/12/18 03:32:27;;;;;;;16.77;11.93;;;;;;;;;;5093935;28;20165;-75
2021/12/18 03:34:54;;;;;;;16.73;10.33;;;;;;;;;;5083993;28;20247;-75
2021/12/18 03:37:20;;;;;;;16.50;12.37;;;;;;;;;;5071882;28;20187;-75
2021/12/18 03:39:47;;;;;;;17.10;12.70;;;;;;;;;;5067118;28;20180;-76
2021/12/18 03:42:13;;;;;;;16.73;11.67;;;;;;;;;;5088494;28;20169;-76
2021/12/18 03:44:39;;;;;;;16.50;11.43;;;;;;;;;;5090022;28;20295;-76
2021/12/18 03:47:06;;;;;;;17.47;11.77;;;;;;;;;;5093561;28;20230;-75
2021/12/18 03:49:32;;;;;;;17.23;12.07;;;;;;;;;;5074569;28;20196;-75
2021/12/18 03:51:59;;;;;;;17.10;11.97;;;;;;;;;;5093430;28;20176;-75
2021/12/18 03:54:25;;;;;;;16.37;11.83;;;;;;;;;;5093060;28;20201;-75
2021/12/18 03:56:51;;;;;;;15.30;11.80;;;;;;;;;;5093273;28;20175;-76
2021/12/18 03:59:17;;;;;;;19.37;12.83;;;;;;;;;;5092025;28;20265;-75
2021/12/18 04:01:44;;;;;;;20.80;13.70;;;;;;;;;;5093350;28;20310;-76
2021/12/18 04:04:10;;;;;;;20.30;12.87;;;;;;;;;;5091534;28;20199;-75
2021/12/18 04:06:39;;;;;;;22.10;14.43;;;;;;;;;;5092826;28;20187;-75
2021/12/18 04:09:06;;;;;;;19.33;13.17;;;;;;;;;;5091904;28;20628;-75
2021/12/18 04:11:33;;;;;;;20.43;13.63;;;;;;;;;;5075260;28;20184;-75
2021/12/18 04:14:01;;;;;;;22.70;14.13;;;;;;;;;;5092321;28;20687;-75
2021/12/18 04:16:28;;;;;;;20.50;14.43;;;;;;;;;;5091615;28;20204;-75
2021/12/18 04:18:54;;;;;;;20.73;14.97;;;;;;;;;;5092591;28;20184;-75
2021/12/18 04:21:20;;;;;;;21.20;14.93;;;;;;;;;;5093130;28;20690;-76
2021/12/18 04:23:46;;;;;;;21.97;15.27;;;;;;;;;;5095550;28;20197;-76
2021/12/18 04:26:12;;;;;;;19.47;13.33;;;;;;;;;;5087041;28;20176;-76
2021/12/18 04:28:38;;;;;;;23.20;15.93;;;;;;;;;;5093179;28;20187;-76
2021/12/18 04:31:04;;;;;;;21.83;15.50;;;;;;;;;;5088056;28;20185;-76
2021/12/18 04:33:31;;;;;;;19.20;13.90;;;;;;;;;;5090133;28;20802;-76
2021/12/18 04:35:57;;;;;;;18.27;13.20;;;;;;;;;;5090849;28;20207;-76
2021/12/18 04:38:23;;;;;;;21.93;14.23;;;;;;;;;;5091520;28;20181;-76
2021/12/18 04:40:50;;;;;;;18.83;13.57;;;;;;;;;;5092260;28;20168;-76
2021/12/18 04:43:16;;;;;;;18.10;12.83;;;;;;;;;;5092602;28;20172;-75
2021/12/18 04:45:42;;;;;;;18.03;13.00;;;;;;;;;;5092150;28;20196;-75
2021/12/18 04:48:08;;;;;;;19.33;13.37;;;;;;;;;;5092538;28;20196;-76
2021/12/18 04:50:34;;;;;;;16.93;12.80;;;;;;;;;;5092417;28;20208;-75
2021/12/18 04:53:01;;;;;;;19.33;13.70;;;;;;;;;;5074297;28;20184;-75
2021/12/18 04:55:27;;;;;;;18.87;12.90;;;;;;;;;;5092225;28;20212;-75
2021/12/18 04:57:55;;;;;;;21.10;14.43;;;;;;;;;;5091706;28;20179;-75
2021/12/18 05:00:27;;;;;;;18.57;13.10;;;;;;;;;;5074434;28;20208;-75
2021/12/18 05:02:54;;;;;;;21.40;13.97;;;;;;;;;;5092000;28;20739;-75
2021/12/18 05:05:20;;;;;;;19.83;14.33;;;;;;;;;;5091553;28;20261;-74
2021/12/18 05:07:47;;;;;;;22.10;14.90;;;;;;;;;;5092170;28;20185;-75
2021/12/18 05:10:13;;;;;;;19.87;14.87;;;;;;;;;;5074181;28;20283;-75
2021/12/18 05:12:39;;;;;;;22.03;14.53;;;;;;;;;;5077587;28;20686;-75
2021/12/18 05:15:06;;;;;;;18.97;13.27;;;;;;;;;;5091607;28;20644;-75
2021/12/18 05:17:33;;;;;;;18.47;13.70;;;;;;;;;;5057663;28;20232;-74
2021/12/18 05:19:59;;;;;;;18.03;13.43;;;;;;;;;;5090569;28;20192;-74
2021/12/18 05:22:25;;;;;;;17.97;12.43;;;;;;;;;;5090893;28;20256;-75
2021/12/18 05:24:51;;;;;;;20.10;13.60;;;;;;;;;;5091940;28;20200;-75
2021/12/18 05:27:17;;;;;;;19.87;13.80;;;;;;;;;;5090528;28;20238;-76
2021/12/18 05:29:43;;;;;;;16.30;12.57;;;;;;;;;;5090651;28;20188;-75
2021/12/18 05:32:10;;;;;;;21.43;12.90;;;;;;;;;;5090781;28;20220;-75
2021/12/18 05:34:37;;;;;;;18.27;13.47;;;;;;;;;;5091238;28;20624;-76
2021/12/18 05:37:18;;;;;;;20.43;13.93;;;;;;;;;;5090546;28;20217;-75
2021/12/18 05:39:45;;;;;;;17.57;12.97;;;;;;;;;;5090506;28;20157;-76
2021/12/18 05:42:11;;;;;;;19.07;12.97;;;;;;;;;;5073649;28;20176;-76
2021/12/18 05:44:38;;;;;;;18.17;13.17;;;;;;;;;;5091385;28;20203;-74
2021/12/18 05:47:04;;;;;;;17.60;12.40;;;;;;;;;;5091565;28;20180;-74
2021/12/18 05:49:30;;;;;;;20.83;13.87;;;;;;;;;;5069442;28;20173;-76
2021/12/18 05:51:57;;;;;;;17.87;12.80;;;;;;;;;;5080682;28;20180;-75
2021/12/18 05:54:23;;;;;;;19.47;13.53;;;;;;;;;;5091286;28;20647;-75
2021/12/18 05:56:49;;;;;;;20.13;14.87;;;;;;;;;;5089846;28;20538;-76
2021/12/18 05:59:15;;;;;;;17.70;13.23;;;;;;;;;;5089697;28;20739;-76
2021/12/18 06:01:41;;;;;;;17.60;12.93;;;;;;;;;;5056609;28;20202;-75
2021/12/18 06:04:08;;;;;;;18.37;12.80;;;;;;;;;;5085121;28;20591;-76
2021/12/18 06:06:34;;;;;;;19.83;13.30;;;;;;;;;;5089681;28;20172;-76
2021/12/18 06:09:00;;;;;;;18.60;13.53;;;;;;;;;;5089908;28;20701;-76
2021/12/18 06:11:30;;;;;;;17.47;12.70;;;;;;;;;;5087111;28;20176;-76
2021/12/18 06:13:56;;;;;;;15.90;11.83;;;;;;;;;;5091407;28;20220;-76
2021/12/18 06:16:23;;;;;;;13.23;9.90;;;;;;;;;;5086471;28;20731;-75
2021/12/18 06:18:50;;;;;;;12.53;10.03;;;;;;;;;;5089568;28;20173;-75
2021/12/18 06:21:18;;;;;;;11.20;8.77;;;;;;;;;;5090364;28;20230;-76
2021/12/18 06:23:45;;;;;;;12.53;9.20;;;;;;;;;;5092335;28;20226;-75
2021/12/18 06:26:11;;;;;;;12.20;9.20;;;;;;;;;;5090242;28;20267;-75
2021/12/18 06:28:37;;;;;;;12.90;9.43;;;;;;;;;;5091345;28;20180;-75
2021/12/18 06:31:03;;;;;;;11.17;8.93;;;;;;;;;;5091080;28;20582;-75
2021/12/18 06:33:30;;;;;;;10.90;8.67;;;;;;;;;;5072727;28;20193;-75
2021/12/18 06:35:56;;;;;;;12.23;9.43;;;;;;;;;;5090914;28;20256;-76
2021/12/18 06:38:22;;;;;;;11.10;9.10;;;;;;;;;;5090502;28;20184;-75
2021/12/18 06:40:49;;;;;;;10.93;9.33;;;;;;;;;;5073869;28;20191;-75
2021/12/18 06:43:15;;;;;;;12.73;10.30;;;;;;;;;;5091965;28;20600;-76
2021/12/18 06:45:41;;;;;;;15.17;11.83;;;;;;;;;;5095647;28;20173;-75
2021/12/18 06:48:08;;;;;;;14.57;10.73;;;;;;;;;;5072610;28;20189;-75
2021/12/18 06:50:34;;;;;;;13.40;11.17;;;;;;;;;;5110647;28;20229;-75
2021/12/18 06:53:01;;;;;;;15.83;11.40;;;;;;;;;;5106826;28;20184;-76
2021/12/18 06:55:27;;;;;;;15.23;11.77;;;;;;;;;;5095826;28;20214;-75
2021/12/18 06:57:53;;;;;;;15.83;12.03;;;;;;;;;;5090835;28;20181;-76
2021/12/18 07:00:20;;;;;;;17.83;13.67;;;;;;;;;;5089466;28;20177;-76
2021/12/18 07:02:47;;;;;;;16.40;12.60;;;;;;;;;;5091543;28;20176;-74
2021/12/18 07:05:13;;;;;;;15.43;11.70;;;;;;;;;;5113368;28;20172;-75
2021/12/18 07:07:39;;;;;;;14.93;10.87;;;;;;;;;;5113898;28;20185;-75
2021/12/18 07:10:06;;;;;;;14.20;10.83;;;;;;;;;;5096652;28;20261;-76
2021/12/18 07:12:33;;;;;;;13.87;10.60;;;;;;;;;;5093515;28;20626;-74
2021/12/18 07:14:59;;;;;;;15.37;11.17;;;;;;;;;;5094202;28;20266;-75
2021/12/18 07:17:25;;;;;;;12.37;9.97;;;;;;;;;;5075987;28;20719;-75
2021/12/18 07:19:51;;;;;;;14.37;10.73;;;;;;;;;;5093080;28;20185;-75
2021/12/18 07:22:17;;;;;;;14.70;10.67;;;;;;;;;;5092915;28;20705;-75
2021/12/18 07:24:43;;;;;;;13.60;10.73;;;;;;;;;;5093875;28;20204;-75
2021/12/18 07:27:10;;;;;;;13.80;10.07;;;;;;;;;;5092634;28;20216;-76
2021/12/18 07:29:36;;;;;;;14.83;11.13;;;;;;;;;;5092627;28;20173;-75
2021/12/18 07:32:02;;;;;;;12.00;9.70;;;;;;;;;;5093979;28;20259;-75
2021/12/18 07:34:28;;;;;;;14.93;10.97;;;;;;;;;;5093647;28;20211;-76
2021/12/18 07:36:54;;;;;;;12.53;9.87;;;;;;;;;;5093798;28;20632;-76
2021/12/18 07:39:20;;;;;;;13.63;10.27;;;;;;;;;;5093229;28;20233;-75
2021/12/18 07:41:47;;;;;;;12.57;9.70;;;;;;;;;;5093376;28;20263;-76
2021/12/18 07:44:14;;;;;;;11.13;8.67;;;;;;;;;;5076892;28;20188;-75
2021/12/18 07:46:40;;;;;;;13.27;10.13;;;;;;;;;;5093613;28;20223;-75
2021/12/18 07:49:08;;;;;;;12.77;10.13;;;;;;;;;;5075750;28;20180;-75
2021/12/18 07:51:34;;;;;;;12.90;10.27;;;;;;;;;;5092703;28;20202;-76
2021/12/18 07:54:00;;;;;;;14.10;10.43;;;;;;;;;;5093038;28;20201;-76
2021/12/18 07:56:26;;;;;;;14.20;10.60;;;;;;;;;;5091835;28;20208;-75
2021/12/18 07:58:53;;;;;;;14.67;11.07;;;;;;;;;;5093314;28;20172;-74
2021/12/18 08:01:19;;;;;;;15.37;11.13;;;;;;;;;;5092534;28;20185;-76
2021/12/18 08:03:45;;;;;;;12.07;9.47;;;;;;;;;;5075456;28;20199;-75
2021/12/18 08:06:11;;;;;;;11.97;10.17;;;;;;;;;;5092122;28;20297;-75
2021/12/18 08:08:37;;;;;;;12.17;9.37;;;;;;;;;;5088958;28;20176;-75
2021/12/18 08:11:04;;;;;;;12.73;9.93;;;;;;;;;;5093123;28;20183;-75
2021/12/18 08:13:30;;;;;;;14.57;10.27;;;;;;;;;;5092096;28;20624;-75
2021/12/18 08:15:56;;;;;;;15.93;10.50;;;;;;;;;;5090442;28;20204;-76
2021/12/18 08:18:23;;;;;;;14.67;11.10;;;;;;;;;;5092109;28;20193;-76
2021/12/18 08:20:49;;;;;;;14.63;10.83;;;;;;;;;;5094689;28;20651;-74
2021/12/18 08:23:15;;;;;;;13.30;10.63;;;;;;;;;;5094008;28;20305;-74
2021/12/18 08:25:41;;;;;;;13.10;10.63;;;;;;;;;;5091612;28;20257;-75
2021/12/18 08:28:08;;;;;;;13.13;10.97;;;;;;;;;;5093032;28;20222;-75
2021/12/18 08:30:35;;;;;;;12.03;9.80;;;;;;;;;;5090278;28;20180;-76
2021/12/18 08:33:01;;;;;;;12.63;9.57;;;;;;;;;;5088076;28;20181;-76
2021/12/18 08:35:28;;;;;;;14.47;10.33;;;;;;;;;;5090140;28;20240;-76
2021/12/18 08:37:55;;;;;;;11.83;9.40;;;;;;;;;;5092405;28;20215;-76
2021/12/18 08:40:21;;;;;;;12.40;10.20;;;;;;;;;;5091340;28;20245;-75
2021/12/18 08:42:47;;;;;;;13.63;10.47;;;;;;;;;;5091102;28;20169;-74
2021/12/18 08:45:14;;;;;;;12.70;10.27;;;;;;;;;;5087714;28;20652;-75
2021/12/18 08:47:40;;;;;;;13.17;10.53;;;;;;;;;;5090137;28;20193;-71
2021/12/18 08:50:07;;;;;;;10.50;9.03;;;;;;;;;;5090601;28;20180;-73
2021/12/18 08:52:33;;;;;;;13.17;10.40;;;;;;;;;;5090926;28;20276;-75
2021/12/18 08:55:00;;;;;;;12.67;9.93;;;;;;;;;;5083864;28;20261;-76
2021/12/18 08:57:26;;;;;;;13.77;10.63;;;;;;;;;;5073001;28;20284;-74
2021/12/18 08:59:52;;;;;;;13.43;10.47;;;;;;;;;;5090309;28;20209;-76
2021/12/18 09:02:19;;;;;;;13.67;10.67;;;;;;;;;;5091475;28;20180;-75
2021/12/18 09:04:45;;;;;;;12.53;10.17;;;;;;;;;;5091542;28;20204;-75
2021/12/18 09:07:11;;;;;;;12.30;10.10;;;;;;;;;;5090191;28;20521;-75
2021/12/18 09:09:38;;;;;;;12.33;10.27;;;;;;;;;;5091194;28;20652;-74
2021/12/18 09:12:05;;;;;;;12.30;9.80;;;;;;;;;;5092018;28;20183;-74
2021/12/18 09:14:31;;;;;;;13.73;11.10;;;;;;;;;;5089671;28;20216;-74
2021/12/18 09:16:57;;;;;;;14.07;11.70;;;;;;;;;;5100582;28;20195;-75
2021/12/18 09:19:23;;;;;;;13.40;10.80;;;;;;;;;;5091071;28;20191;-75
2021/12/18 09:21:50;;;;;;;19.20;15.43;;;;;;;;;;5092551;28;20208;-75
2021/12/18 09:24:16;;;;;;;18.30;12.73;;;;;;;;;;5096183;28;20220;-74
2021/12/18 09:26:42;;;;;;;13.23;10.93;;;;;;;;;;5089267;28;20201;-76
2021/12/18 09:29:08;;;;;;;14.83;11.40;;;;;;;;;;5109687;28;20218;-76
2021/12/18 09:31:35;;;;;;;13.07;10.80;;;;;;;;;;5091771;28;20180;-76
2021/12/18 09:34:01;;;;;;;14.13;10.70;;;;;;;;;;5090758;28;20215;-74
2021/12/18 09:36:27;;;;;;;14.90;10.57;;;;;;;;;;5091975;28;20244;-77
2021/12/18 09:38:53;;;;;;;14.03;10.80;;;;;;;;;;5089875;28;20182;-74
2021/12/18 09:41:19;;;;;;;14.83;11.40;;;;;;;;;;5088260;28;20174;-76
2021/12/18 09:43:47;;;;;;;16.37;12.80;;;;;;;;;;5089466;28;20192;-76
2021/12/18 09:46:14;;;;;;;16.23;13.00;;;;;;;;;;5089911;28;20172;-74
2021/12/18 09:48:41;;;;;;;16.67;12.80;;;;;;;;;;5090793;28;20227;-76
2021/12/18 09:51:12;;;;;;;17.63;12.73;;;;;;;;;;5082393;28;20246;-76
2021/12/18 09:53:39;;;;;;;13.47;11.20;;;;;;;;;;5089656;28;20299;-75
2021/12/18 09:56:06;;;;;;;14.50;11.30;;;;;;;;;;5088446;28;20204;-76
2021/12/18 09:58:33;;;;;;;13.63;10.83;;;;;;;;;;5086916;28;20185;-76
2021/12/18 10:00:59;;;;;;;13.53;10.97;;;;;;;;;;5083880;28;20176;-76
2021/12/18 10:03:44;;;;;;;14.40;11.10;;;;;;;;;;5067960;28;20312;-77
2021/12/18 10:06:30;;;;;;;16.07;12.23;;;;;;;;;;5082617;28;20192;-76
2021/12/18 10:08:56;;;;;;;17.40;12.70;;;;;;;;;;5089755;28;20179;-76
2021/12/18 10:11:22;;;;;;;14.57;11.67;;;;;;;;;;5067617;28;20195;-75
2021/12/18 10:13:52;;;;;;;15.47;11.77;;;;;;;;;;5086818;28;20206;-75
2021/12/18 10:16:18;;;;;;;15.43;11.17;;;;;;;;;;5086706;28;20208;-75
2021/12/18 10:18:44;;;;;;;13.67;10.80;;;;;;;;;;5072260;28;20219;-80
2021/12/18 10:21:12;;;;;;;11.07;9.50;;;;;;;;;;5087543;28;20180;-76
2021/12/18 10:23:40;;;;;;;11.50;9.73;;;;;;;;;;5085054;28;20250;-76
2021/12/18 10:26:06;;;;;;;12.67;9.67;;;;;;;;;;5073235;28;20180;-76
2021/12/18 10:28:52;;;;;;;12.00;9.80;;;;;;;;;;5087141;28;20188;-76
2021/12/18 10:31:37;;;;;;;13.03;10.50;;;;;;;;;;5082719;28;20275;-76
2021/12/18 10:34:18;;;;;;;12.00;9.50;;;;;;;;;;5084355;28;20552;-74
2021/12/18 10:37:03;;;;;;;14.03;10.93;;;;;;;;;;5084510;28;20212;-76
2021/12/18 10:39:29;;;;;;;11.37;9.17;;;;;;;;;;5085561;28;20191;-76
2021/12/18 10:41:55;;;;;;;12.20;9.70;;;;;;;;;;5086882;28;20173;-76
2021/12/18 10:44:22;;;;;;;13.47;10.10;;;;;;;;;;5085199;28;20243;-76
2021/12/18 10:46:53;;;;;;;12.03;9.70;;;;;;;;;;5085283;28;20522;-76
2021/12/18 10:49:22;;;;;;;12.90;9.67;;;;;;;;;;5068361;28;20241;-76
2021/12/18 10:51:50;;;;;;;14.50;10.50;;;;;;;;;;5084435;28;20276;-76
2021/12/18 10:54:18;;;;;;;10.47;9.03;;;;;;;;;;5079730;28;20501;-73
2021/12/18 10:56:51;;;;;;;13.70;10.03;;;;;;;;;;5080607;28;20317;-76
2021/12/18 10:59:26;;;;;;;12.17;10.03;;;;;;;;;;5086200;28;20712;-76
2021/12/18 11:01:57;;;;;;;14.47;9.90;;;;;;;;;;5077405;28;20184;-75
2021/12/18 11:04:43;;;;;;;11.83;9.83;;;;;;;;;;5065776;28;20216;-76
2021/12/18 11:07:28;;;;;;;11.60;10.00;;;;;;;;;;5068599;28;20219;-76
2021/12/18 11:10:21;;;;;;;10.27;8.97;;;;;;;;;;5086584;28;20188;-76
2021/12/18 11:15:33;;;;;;;13.07;9.87;;;;;;;;;;5087041;28;20770;-76
2021/12/18 11:17:59;;;;;;;13.97;9.83;;;;;;;;;;5087131;28;20227;-76
2021/12/18 11:20:25;;;;;;;10.70;9.10;;;;;;;;;;5089573;28;20215;-76
2021/12/18 11:22:52;;;;;;;12.80;9.40;;;;;;;;;;5088920;28;20596;-76
2021/12/18 11:25:22;;;;;;;11.80;9.77;;;;;;;;;;5087079;28;20599;-76
2021/12/18 11:27:48;;;;;;;10.37;8.80;;;;;;;;;;5088594;28;20212;-76
2021/12/18 11:30:17;;;;;;;13.23;9.90;;;;;;;;;;5087740;28;20187;-76
2021/12/18 11:32:54;;;;;;;14.23;9.93;;;;;;;;;;5093160;28;20240;-75
2021/12/18 11:35:20;;;;;;;12.00;9.93;;;;;;;;;;5099920;28;20256;-72
2021/12/18 11:37:47;;;;;;;13.03;11.03;;;;;;;;;;5099110;28;20180;-72
2021/12/18 11:40:16;;;;;;;14.07;10.70;;;;;;;;;;5073243;28;20197;-76
2021/12/18 11:42:43;;;;;;;11.83;9.90;;;;;;;;;;5083291;28;20184;-74
2021/12/18 11:45:09;;;;;;;11.63;9.50;;;;;;;;;;5066704;28;20622;-76
2021/12/18 11:47:39;;;;;;;14.13;11.50;;;;;;;;;;5086578;28;21614;-75
2021/12/18 11:50:08;;;;;;;12.23;9.87;;;;;;;;;;5090508;28;20189;-76
2021/12/18 11:52:53;;;;;;;12.43;9.97;;;;;;;;;;5110959;28;20236;-76
2021/12/18 11:55:19;;;;;;;13.10;10.50;;;;;;;;;;5103435;28;20598;-76
2021/12/18 11:57:48;;;;;;;12.10;9.90;;;;;;;;;;5093251;28;20275;-76
2021/12/18 12:00:21;;;;;;;12.33;10.33;;;;;;;;;;5091023;28;20234;-76
2021/12/18 12:02:52;;;;;;;12.27;10.43;;;;;;;;;;5092805;28;20176;-76
2021/12/18 12:05:32;;;;;;;13.30;11.07;;;;;;;;;;5091820;28;20208;-77
2021/12/18 12:08:17;;;;;;;14.07;9.97;;;;;;;;;;5072918;28;20188;-76
2021/12/18 12:11:03;;;;;;;13.00;10.23;;;;;;;;;;5089378;28;20196;-75
2021/12/18 12:13:48;;;;;;;13.53;10.93;;;;;;;;;;5088286;28;20184;-74
2021/12/18 12:16:14;;;;;;;12.73;10.13;;;;;;;;;;5087842;28;20200;-74
2021/12/18 12:18:59;;;;;;;13.90;11.10;;;;;;;;;;5089562;28;20308;-74
2021/12/18 12:21:38;;;;;;;13.37;10.43;;;;;;;;;;5087363;28;20767;-73
2021/12/18 12:24:04;;;;;;;13.73;10.93;;;;;;;;;;5084175;28;20212;-74
2021/12/18 12:26:30;;;;;;;13.97;10.73;;;;;;;;;;5085319;28;20247;-73
2021/12/18 12:28:56;;;;;;;11.63;10.07;;;;;;;;;;5068656;28;20202;-77
2021/12/18 12:31:23;;;;;;;12.97;10.40;;;;;;;;;;5069053;28;20188;-76
2021/12/18 12:33:50;;;;;;;14.13;10.37;;;;;;;;;;5086883;28;20589;-77
2021/12/18 12:36:24;;;;;;;15.60;11.17;;;;;;;;;;5087475;28;20192;-75
2021/12/18 12:38:55;;;;;;;14.30;10.90;;;;;;;;;;5070333;28;20690;-74
2021/12/18 12:41:31;;;;;;;14.37;11.53;;;;;;;;;;5072073;28;20203;-74
2021/12/18 12:44:00;;;;;;;15.63;12.80;;;;;;;;;;5089466;28;20675;-74
2021/12/18 12:46:27;;;;;;;14.80;11.77;;;;;;;;;;5089159;28;20185;-74
2021/12/18 12:49:07;;;;;;;14.03;11.23;;;;;;;;;;5089058;28;20264;-74
2021/12/18 12:51:55;;;;;;;15.00;11.33;;;;;;;;;;5089585;28;20180;-74
2021/12/18 12:54:40;;;;;;;13.73;10.90;;;;;;;;;;5090659;28;20218;-74
2021/12/18 12:57:27;;;;;;;18.90;12.27;;;;;;;;;;5088827;28;20739;-74
2021/12/18 12:59:59;;;;;;;13.97;10.93;;;;;;;;;;5089873;28;20179;-74
2021/12/18 13:02:28;;;;;;;15.63;11.63;;;;;;;;;;5087943;28;20640;-75
2021/12/18 13:05:06;;;;;;;15.30;11.77;;;;;;;;;;5086952;28;20672;-76
2021/12/18 13:07:33;;;;;;;14.30;11.43;;;;;;;;;;5087353;28;20225;-77
2021/12/18 13:09:59;;;;;;;15.43;12.07;;;;;;;;;;5090090;28;20183;-77
2021/12/18 13:12:26;;;;;;;15.13;11.40;;;;;;;;;;5091827;28;20636;-77
2021/12/18 13:14:52;;;;;;;13.63;10.90;;;;;;;;;;5090555;28;20219;-77
2021/12/18 13:17:20;;;;;;;14.77;11.47;;;;;;;;;;5091064;28;20321;-78
2021/12/18 13:19:59;;;;;;;15.47;11.40;;;;;;;;;;5092117;28;20188;-78
2021/12/18 13:22:33;;;;;;;15.13;11.77;;;;;;;;;;5091096;28;20626;-77
2021/12/18 13:25:10;;;;;;;14.23;10.90;;;;;;;;;;5088300;28;20210;-77
2021/12/18 13:27:39;;;;;;;15.53;11.77;;;;;;;;;;5084581;28;20617;-77
2021/12/18 13:30:12;;;;;;;14.60;11.27;;;;;;;;;;5086964;28;20238;-77
2021/12/18 13:32:49;;;;;;;17.00;13.03;;;;;;;;;;5071952;28;20200;-77
2021/12/18 13:35:16;;;;;;;17.30;12.87;;;;;;;;;;5089098;28;20216;-76
2021/12/18 13:37:42;;;;;;;18.37;13.23;;;;;;;;;;5090251;28;20203;-77
2021/12/18 13:40:15;;;;;;;17.97;13.27;;;;;;;;;;5090919;28;20557;-77
2021/12/18 13:42:41;;;;;;;18.53;13.00;;;;;;;;;;5094295;28;20546;-77
2021/12/18 13:45:08;;;;;;;19.23;14.07;;;;;;;;;;5092524;28;20630;-77
2021/12/18 13:47:38;;;;;;;16.80;12.20;;;;;;;;;;5091619;28;20211;-77
2021/12/18 13:50:07;;;;;;;17.93;12.87;;;;;;;;;;5054143;28;20204;-77
2021/12/18 13:52:38;;;;;;;21.07;14.50;;;;;;;;;;5086541;28;20180;-77
2021/12/18 13:55:19;;;;;;;18.27;13.63;;;;;;;;;;5085361;28;20246;-78
2021/12/18 13:57:58;;;;;;;19.13;13.60;;;;;;;;;;5099371;28;20257;-77
2021/12/18 14:00:24;;;;;;;19.30;13.70;;;;;;;;;;5111975;28;20220;-77
2021/12/18 14:02:50;;;;;;;19.57;14.00;;;;;;;;;;5093169;28;20275;-77
2021/12/18 14:05:16;;;;;;;20.60;13.63;;;;;;;;;;5090952;28;20204;-77
2021/12/18 14:07:43;;;;;;;18.67;12.93;;;;;;;;;;5091547;28;20206;-77
2021/12/18 14:10:09;;;;;;;18.40;13.33;;;;;;;;;;5089961;28;20180;-77
2021/12/18 14:12:35;;;;;;;22.13;16.03;;;;;;;;;;5091000;28;20173;-77
2021/12/18 14:15:02;;;;;;;18.30;13.47;;;;;;;;;;5089092;28;20227;-77
2021/12/18 14:17:28;;;;;;;16.87;12.53;;;;;;;;;;5075297;28;20180;-77
2021/12/18 14:20:01;;;;;;;18.40;13.33;;;;;;;;;;5069862;28;20601;-77
2021/12/18 14:22:31;;;;;;;19.10;13.23;;;;;;;;;;5083446;28;20198;-76
2021/12/18 14:25:00;;;;;;;17.57;12.47;;;;;;;;;;5093934;28;20303;-77
2021/12/18 14:27:37;;;;;;;19.30;14.03;;;;;;;;;;5082391;28;20197;-77
2021/12/18 14:30:04;;;;;;;18.53;12.53;;;;;;;;;;5073846;28;20200;-77
2021/12/18 14:32:31;;;;;;;20.50;13.73;;;;;;;;;;5091233;28;20283;-77
2021/12/18 14:35:02;;;;;;;19.70;14.87;;;;;;;;;;5090971;28;20283;-77
2021/12/18 14:37:29;;;;;;;20.97;14.63;;;;;;;;;;5073550;28;20601;-77
2021/12/18 14:39:57;;;;;;;21.73;14.60;;;;;;;;;;5090567;28;20207;-77
2021/12/18 14:44:56;;;;;;;21.93;15.53;;;;;;;;;;5084975;28;20215;-78
2021/12/18 14:47:34;;;;;;;19.17;14.13;;;;;;;;;;5089961;28;20192;-77
2021/12/18 14:50:06;;;;;;;22.90;15.33;;;;;;;;;;5093615;28;20240;-78
2021/12/18 14:52:48;;;;;;;26.43;17.07;;;;;;;;;;5092563;28;20593;-77
2021/12/18 14:55:15;;;;;;;24.97;17.33;;;;;;;;;;5093104;28;20208;-77
2021/12/18 14:57:51;;;;;;;24.07;17.00;;;;;;;;;;5091668;28;20238;-78
2021/12/18 15:00:21;;;;;;;25.53;16.57;;;;;;;;;;5073961;28;20258;-78
2021/12/18 15:02:54;;;;;;;25.57;17.17;;;;;;;;;;5091432;28;20173;-78
2021/12/18 15:05:21;;;;;;;24.23;16.73;;;;;;;;;;5092293;28;20748;-78
2021/12/18 15:08:05;;;;;;;25.97;18.00;;;;;;;;;;5083978;28;20185;-76
2021/12/18 15:10:52;;;;;;;25.17;16.60;;;;;;;;;;5094633;28;20180;-78